Startpagina
METAR-TAF:

METAR-TAF

Vliegvelden :

Wrangell, Alaska, Verenigde Staten

breedte: 56-29N, lengte: 132-22W, hoogte: 13 m

Actueel weer

Dit bericht is 12 minuten geleden gemaakt, om 19:56 UTC
Wind 6 kt uit het noordwesten
Temperatuur 7°C
Vochtigheid 49%
Druk 1030 hPa
Zicht: 16.1 km
Onbewolkt

METAR: PAWG 101956Z 32006KT 10SM CLR 07/M03 A3042 RMK AO2 SLP300 T00721028

Tijdstip: 12:08 (20:08 UTC)

Verwachting

Dit bericht is 2 uur en het 42 minuten geleden gemaakt, om 17:26 UTC
Verwachting geldig van 10 om 18 UTC tot 11 om 18 UTC
Wind 9 kt uit het noordwesten
Zicht: 10 km
Weinig wolken op 2000 ft
Van 10 om 2200 UTC
Wind 11 kt uit het noorden
Zicht: 10 km
Onbewolkt
Van 11 om 0500 UTC
Wind 9 kt uit het oostzuidoosten
Zicht: 10 km
Onbewolkt

TAF: PAWG 101726Z 1018/1118 32009KT P6SM FEW020 FM102200 35011KT P6SM SKC FM110500 12009KT P6SM SKC AMD LTD TO CLD VIS AND WIND 1106/1115

Waarnemingen en weersverwachtingen van meer dan 4000 vliegvelden (METAR en TAF).

De beschikbare stations zijn de gele en rode punten op de kaart.

Ga met uw muis naar het station om de naam te zien.

Klik dan om waarnemingen en weersverwachtingen te zien.

kaart wijzigen: klik op de groene knoppen met een zwart kruis om in te zoomen, op de groene knop met een streepje om uit te zoomen of op de groene pijlen voor aangrenzende kaarten.


METAR-TAF: